Decoded Metar for YGEL ( in ) (IATA:) | Meteo·Mobile Aviation Weather
aviador You're here:

YGEL Decoded Metar

in
Report Time2018-10-23 23:00:00
UTC Time2018-10-23 23:24:35
Flight Rules vfr VFR
Wind050° at 06 kt
W.Decomp.*RWY 03: 5.6 kt HW 2.1 kt RCW
RWY 08: 5.2 kt HW 3 kt LCW
RWY 14: 6 kt LCW
W.Rank050° ranks 14
Current wind is below 050° avg. (10.0)
Visibility9999 m
Phenomena:N/A
Clouds:Overcast 041 Hf
Expected CloudBase > 2,400 ft AGL from Temp-Dew spread
Ceiling4,100 ft
Temp15°C
Dew Point09°C (68% RH)
AAT12.7°C
QNH1015 hPa
Raw Report
METAR YGEL 232300Z AUTO 05006KT 9999 // OVC041 15/09 Q1015=

Extra information for YGEL:More info

Social comments